createdAt,value
2018-02-19T00:00:20.167Z,54.80
2018-02-19T00:02:47.724Z,55.20
2018-02-19T00:05:15.307Z,55.20
2018-02-19T00:07:42.967Z,55.70
2018-02-19T00:10:10.511Z,55.90
2018-02-19T00:12:38.071Z,55.30
2018-02-19T00:15:05.629Z,55.70
2018-02-19T00:17:33.154Z,55.90
2018-02-19T00:20:00.754Z,55.70
2018-02-19T00:22:28.309Z,55.70
2018-02-19T00:24:55.845Z,55.50
2018-02-19T00:27:23.429Z,55.80
2018-02-19T00:29:50.983Z,55.70
2018-02-19T00:32:18.550Z,55.80
2018-02-19T00:34:46.150Z,55.30
2018-02-19T00:37:13.705Z,55.00
2018-02-19T00:39:41.270Z,55.20
2018-02-19T00:42:08.792Z,55.30
2018-02-19T00:44:36.342Z,55.10
2018-02-19T00:47:03.904Z,54.70
2018-02-19T00:49:31.434Z,55.30
2018-02-19T00:51:59.001Z,55.00
2018-02-19T00:54:27.348Z,55.90
2018-02-19T00:56:54.863Z,55.90
2018-02-19T00:59:22.403Z,55.40
2018-02-19T01:01:49.981Z,55.40
2018-02-19T01:04:17.523Z,55.50
2018-02-19T01:06:45.096Z,55.90
2018-02-19T01:09:12.661Z,55.90
2018-02-19T01:11:40.260Z,55.80
2018-02-19T01:14:07.788Z,55.70
2018-02-19T01:16:35.341Z,55.60
2018-02-19T01:19:02.951Z,55.60
2018-02-19T01:21:30.511Z,55.60
2018-02-19T01:23:58.114Z,55.60
2018-02-19T01:26:26.398Z,55.40
2018-02-19T01:28:54.014Z,55.30
2018-02-19T01:31:21.573Z,55.00
2018-02-19T01:33:49.134Z,55.20
2018-02-19T01:36:16.688Z,55.40
2018-02-19T01:38:44.251Z,55.50
2018-02-19T01:41:11.787Z,55.50
2018-02-19T01:43:39.348Z,55.30
2018-02-19T01:46:06.930Z,55.50
2018-02-19T01:48:34.495Z,55.60
2018-02-19T01:51:02.063Z,55.30
2018-02-19T01:53:29.615Z,55.30
2018-02-19T01:55:57.150Z,54.80
2018-02-19T01:58:24.721Z,54.90
2018-02-19T02:00:52.277Z,54.40
2018-02-19T02:03:19.806Z,54.80
2018-02-19T02:05:47.366Z,55.10
2018-02-19T02:08:14.926Z,55.00
2018-02-19T02:10:42.569Z,55.30
2018-02-19T02:13:10.888Z,55.10
2018-02-19T02:15:38.478Z,55.20
2018-02-19T02:18:06.055Z,54.90
2018-02-19T02:20:33.617Z,55.00
2018-02-19T02:23:01.177Z,54.90
2018-02-19T02:25:28.793Z,54.70
2018-02-19T02:27:57.169Z,54.70
2018-02-19T02:30:24.731Z,54.70
2018-02-19T02:32:52.302Z,54.60
2018-02-19T02:35:19.831Z,54.50
2018-02-19T02:37:47.409Z,54.30
2018-02-19T02:40:14.988Z,54.10
2018-02-19T02:42:42.560Z,54.60
2018-02-19T02:45:10.183Z,54.50
2018-02-19T02:47:37.773Z,54.60
2018-02-19T02:50:05.313Z,54.70
2018-02-19T02:52:32.836Z,54.30
2018-02-19T02:55:00.391Z,54.00
2018-02-19T02:57:27.967Z,53.40
2018-02-19T02:59:55.491Z,53.40
2018-02-19T03:02:23.060Z,53.60
2018-02-19T03:04:50.632Z,53.60
2018-02-19T03:07:18.950Z,53.40
2018-02-19T03:09:46.468Z,53.40
2018-02-19T03:12:14.803Z,52.60
2018-02-19T03:14:42.331Z,52.50
2018-02-19T03:17:09.897Z,52.90
2018-02-19T03:19:37.456Z,53.10
2018-02-19T03:22:05.042Z,53.00
2018-02-19T03:24:32.581Z,52.30
2018-02-19T03:27:00.155Z,52.50
2018-02-19T03:29:27.755Z,52.30
2018-02-19T03:31:55.276Z,52.30
2018-02-19T03:34:22.824Z,52.20
2018-02-19T03:36:50.431Z,52.30
2018-02-19T03:39:18.000Z,52.30
2018-02-19T03:41:45.560Z,52.30
2018-02-19T03:44:13.948Z,52.50
2018-02-19T03:46:41.495Z,52.50
2018-02-19T03:49:09.056Z,52.40
2018-02-19T03:51:36.619Z,52.60
2018-02-19T03:54:04.904Z,52.40
2018-02-19T03:56:32.469Z,52.40
2018-02-19T03:59:00.795Z,51.80
2018-02-19T04:01:28.363Z,51.80
2018-02-19T04:03:55.920Z,52.00
2018-02-19T04:06:23.549Z,51.90
2018-02-19T04:08:51.082Z,51.90
2018-02-19T04:11:19.353Z,52.10
2018-02-19T04:13:47.673Z,51.90
2018-02-19T04:16:15.252Z,51.90
2018-02-19T04:18:42.804Z,51.80
2018-02-19T04:21:10.307Z,51.90
2018-02-19T04:23:37.880Z,51.60
2018-02-19T04:26:06.197Z,51.80
2018-02-19T04:28:33.797Z,51.80
2018-02-19T04:31:01.331Z,51.90
2018-02-19T04:33:28.893Z,51.70
2018-02-19T04:35:56.438Z,52.00
2018-02-19T04:38:24.002Z,52.80
2018-02-19T04:40:51.531Z,52.00
2018-02-19T04:43:19.154Z,52.10
2018-02-19T04:46:06.547Z,51.90
2018-02-19T04:48:34.101Z,51.90
2018-02-19T04:51:01.676Z,51.30
2018-02-19T04:53:29.209Z,51.60
2018-02-19T04:55:56.723Z,51.20
2018-02-19T04:58:24.267Z,51.50
2018-02-19T05:00:51.800Z,51.50
2018-02-19T05:03:20.122Z,51.30
2018-02-19T05:05:47.685Z,51.30
2018-02-19T05:08:15.205Z,51.20
2018-02-19T05:10:42.763Z,51.10
2018-02-19T05:13:10.339Z,51.20
2018-02-19T05:15:37.877Z,51.10
2018-02-19T05:18:05.446Z,51.40
2018-02-19T05:20:32.968Z,51.30
2018-02-19T05:23:00.547Z,51.10
2018-02-19T05:25:28.078Z,51.50
2018-02-19T05:27:55.599Z,51.70
2018-02-19T05:30:23.221Z,51.40
2018-02-19T05:32:50.798Z,51.50
2018-02-19T05:35:18.331Z,51.50
2018-02-19T05:37:45.858Z,51.50
2018-02-19T05:40:14.201Z,51.90
2018-02-19T05:42:41.728Z,51.80
2018-02-19T05:45:09.298Z,51.80
2018-02-19T05:47:36.879Z,51.70
2018-02-19T05:50:04.455Z,51.70
2018-02-19T05:52:31.995Z,52.50
2018-02-19T05:54:59.520Z,51.90
2018-02-19T05:57:27.088Z,52.00
2018-02-19T05:59:55.495Z,52.20
2018-02-19T06:02:23.024Z,52.30
2018-02-19T06:04:50.743Z,51.90
2018-02-19T06:07:18.296Z,51.90
2018-02-19T06:09:45.817Z,51.70
2018-02-19T06:12:13.343Z,52.10
2018-02-19T06:14:41.480Z,52.20
2018-02-19T06:17:09.084Z,52.00
2018-02-19T06:19:36.849Z,51.60
2018-02-19T06:22:04.408Z,51.90
2018-02-19T06:24:32.816Z,51.80
2018-02-19T06:27:00.353Z,51.70
2018-02-19T06:29:27.916Z,52.50
2018-02-19T06:31:56.213Z,51.50
2018-02-19T06:34:23.808Z,51.50
2018-02-19T06:36:51.379Z,51.30
2018-02-19T06:39:18.927Z,50.90
2018-02-19T06:41:46.523Z,50.80
2018-02-19T06:44:14.084Z,50.50
2018-02-19T06:46:41.660Z,50.40
2018-02-19T06:49:09.222Z,50.60
2018-02-19T06:51:36.780Z,50.80
2018-02-19T06:54:04.375Z,50.40
2018-02-19T06:56:32.005Z,50.50
2018-02-19T06:58:59.525Z,50.10
2018-02-19T07:01:27.187Z,50.00
2018-02-19T07:03:54.732Z,50.00
2018-02-19T07:06:22.288Z,49.70
2018-02-19T07:08:49.856Z,50.30
2018-02-19T07:11:17.413Z,50.70
2018-02-19T07:13:44.976Z,51.00
2018-02-19T07:16:12.619Z,51.10
2018-02-19T07:18:40.144Z,51.30
2018-02-19T07:21:08.410Z,51.30
2018-02-19T07:23:35.952Z,51.10
2018-02-19T07:26:03.503Z,51.60
2018-02-19T07:28:31.111Z,52.00
2018-02-19T07:30:58.720Z,51.30
2018-02-19T07:33:26.262Z,51.40
2018-02-19T07:35:58.859Z,51.20
2018-02-19T07:38:26.416Z,51.40
2018-02-19T07:40:54.063Z,51.50
2018-02-19T07:43:21.643Z,51.60
2018-02-19T07:45:49.245Z,51.50
2018-02-19T07:48:16.872Z,51.30
2018-02-19T07:50:44.428Z,51.10
2018-02-19T07:53:12.006Z,51.10
2018-02-19T07:55:39.759Z,50.90
2018-02-19T07:58:07.332Z,51.20
2018-02-19T08:00:34.889Z,51.10
2018-02-19T08:03:02.756Z,50.90
2018-02-19T08:05:30.379Z,50.80
2018-02-19T08:07:57.915Z,50.70
2018-02-19T08:10:25.484Z,50.80
2018-02-19T08:12:53.036Z,50.90
2018-02-19T08:15:20.657Z,50.80
2018-02-19T08:17:48.259Z,50.80
2018-02-19T08:20:15.820Z,50.70
2018-02-19T08:22:43.424Z,50.80
2018-02-19T08:25:10.940Z,51.50
2018-02-19T08:27:38.494Z,50.20
2018-02-19T08:30:06.093Z,50.40
2018-02-19T08:32:33.668Z,50.60
2018-02-19T08:35:01.279Z,51.10
2018-02-19T08:37:28.869Z,51.10
2018-02-19T08:39:56.592Z,50.50
2018-02-19T08:42:25.527Z,50.40
2018-02-19T08:44:53.115Z,50.40
2018-02-19T08:47:20.747Z,50.20
2018-02-19T08:49:48.419Z,50.30
2018-02-19T08:52:15.940Z,50.50
2018-02-19T08:54:44.272Z,50.40
2018-02-19T08:57:11.815Z,50.40
2018-02-19T08:59:39.339Z,50.00
2018-02-19T09:02:07.684Z,50.10
2018-02-19T09:04:36.071Z,49.80
2018-02-19T09:07:03.693Z,49.80
2018-02-19T09:09:31.258Z,49.40
2018-02-19T09:11:58.819Z,49.90
2018-02-19T09:14:26.394Z,50.10
2018-02-19T09:16:54.005Z,50.20
2018-02-19T09:19:21.692Z,50.00
2018-02-19T09:21:49.329Z,50.40
2018-02-19T09:24:16.908Z,50.40
2018-02-19T09:26:44.463Z,50.00
2018-02-19T09:29:12.152Z,50.00
2018-02-19T09:31:39.872Z,50.00
2018-02-19T09:34:07.441Z,49.60
2018-02-19T09:36:35.009Z,49.70
2018-02-19T09:39:02.538Z,49.70
2018-02-19T09:41:30.980Z,49.50
2018-02-19T09:43:58.533Z,49.40
2018-02-19T09:46:26.109Z,50.00
2018-02-19T09:48:53.669Z,50.00
2018-02-19T09:51:21.266Z,49.80
2018-02-19T09:53:49.629Z,49.50
2018-02-19T09:56:17.254Z,49.40
2018-02-19T09:58:44.799Z,49.30
2018-02-19T10:01:12.327Z,49.60
2018-02-19T10:03:39.920Z,49.80
2018-02-19T10:06:07.447Z,49.60
2018-02-19T10:08:36.524Z,49.60
2018-02-19T10:11:04.056Z,49.60
2018-02-19T10:13:33.236Z,49.40
2018-02-19T10:16:00.880Z,49.40
2018-02-19T10:18:28.570Z,49.40
2018-02-19T10:20:56.907Z,49.60
2018-02-19T10:23:24.511Z,49.60
2018-02-19T10:25:52.092Z,49.50
2018-02-19T10:28:19.728Z,49.20
2018-02-19T10:30:47.304Z,49.30
2018-02-19T10:33:14.856Z,49.30
2018-02-19T10:35:42.483Z,49.40
2018-02-19T10:38:10.024Z,49.60
2018-02-19T10:40:38.343Z,49.40
2018-02-19T10:43:05.900Z,49.40
2018-02-19T10:45:33.749Z,49.50
2018-02-19T10:48:01.339Z,49.40
2018-02-19T10:50:29.250Z,49.40
2018-02-19T10:52:57.567Z,49.70
2018-02-19T10:55:25.079Z,49.70
2018-02-19T10:57:52.657Z,49.50
2018-02-19T11:00:26.654Z,49.60
2018-02-19T11:02:54.224Z,49.60
2018-02-19T11:05:21.836Z,49.50
2018-02-19T11:07:49.385Z,49.00
2018-02-19T11:10:16.974Z,49.10
2018-02-19T11:12:44.628Z,48.80
2018-02-19T11:15:12.942Z,48.40
2018-02-19T11:17:40.505Z,48.30
2018-02-19T11:20:08.925Z,48.80
2018-02-19T11:22:36.502Z,48.70
2018-02-19T11:25:04.048Z,49.00
2018-02-19T11:27:31.743Z,49.00
2018-02-19T11:29:59.373Z,48.60
2018-02-19T11:32:26.964Z,48.00
2018-02-19T11:34:54.557Z,47.80
2018-02-19T11:37:22.120Z,48.00
2018-02-19T11:39:49.694Z,48.20
2018-02-19T11:42:17.276Z,48.20
2018-02-19T11:44:44.821Z,48.20
2018-02-19T11:47:12.358Z,48.40
2018-02-19T11:49:40.041Z,48.70
2018-02-19T11:52:07.566Z,48.70
2018-02-19T11:54:35.164Z,48.80
2018-02-19T11:57:02.705Z,48.60
2018-02-19T11:59:30.262Z,48.80
2018-02-19T12:01:57.964Z,48.60
2018-02-19T12:04:25.598Z,48.00
2018-02-19T12:06:53.904Z,48.40
2018-02-19T12:09:21.795Z,48.30
2018-02-19T12:11:49.314Z,48.60
2018-02-19T12:14:16.910Z,47.90
2018-02-19T12:16:44.517Z,48.20
2018-02-19T12:19:12.095Z,48.30
2018-02-19T12:21:39.918Z,48.60
2018-02-19T12:24:07.672Z,48.50
2018-02-19T12:26:35.252Z,48.30
2018-02-19T12:29:02.771Z,48.50
2018-02-19T12:31:30.473Z,48.30
2018-02-19T12:33:58.053Z,48.20
2018-02-19T12:36:25.610Z,48.00
2018-02-19T12:38:53.191Z,47.90
2018-02-19T12:41:21.001Z,48.10
2018-02-19T12:43:48.611Z,48.40
2018-02-19T12:46:16.170Z,48.20
2018-02-19T12:48:43.728Z,48.00
2018-02-19T12:51:11.409Z,48.40
2018-02-19T12:53:39.042Z,48.40
2018-02-19T12:56:07.420Z,48.80
2018-02-19T12:58:35.848Z,48.90
2018-02-19T13:01:03.493Z,48.90
2018-02-19T13:03:31.033Z,49.00
2018-02-19T13:05:59.359Z,48.80
2018-02-19T13:08:26.939Z,48.70
2018-02-19T13:10:54.498Z,48.90
2018-02-19T13:13:22.103Z,49.00
2018-02-19T13:15:49.639Z,49.10
2018-02-19T13:18:17.190Z,48.70
2018-02-19T13:20:44.794Z,48.80
2018-02-19T13:23:12.335Z,48.60
2018-02-19T13:25:39.969Z,48.60
2018-02-19T13:28:07.608Z,48.90
2018-02-19T13:30:35.165Z,48.60
2018-02-19T13:33:02.756Z,48.60
2018-02-19T13:35:31.143Z,48.40
2018-02-19T13:37:58.674Z,48.40
2018-02-19T13:40:26.345Z,48.60
2018-02-19T13:42:53.879Z,48.40
2018-02-19T13:45:21.504Z,48.20
2018-02-19T13:47:49.063Z,47.80
2018-02-19T13:50:16.686Z,48.10
2018-02-19T13:52:44.396Z,48.40
2018-02-19T13:55:11.995Z,48.30
2018-02-19T13:57:39.616Z,48.20
2018-02-19T14:00:07.224Z,48.50
2018-02-19T14:02:34.780Z,48.20
2018-02-19T14:05:03.224Z,48.10
2018-02-19T14:07:31.021Z,48.00
2018-02-19T14:09:58.640Z,47.80
2018-02-19T14:12:26.208Z,47.90
2018-02-19T14:14:53.809Z,48.20
2018-02-19T14:17:21.479Z,48.20
2018-02-19T14:19:48.994Z,48.60
2018-02-19T14:22:16.635Z,48.40
2018-02-19T14:24:44.967Z,48.70
2018-02-19T14:27:12.617Z,48.70
2018-02-19T14:29:40.176Z,48.60
2018-02-19T14:32:07.807Z,48.50
2018-02-19T14:34:36.166Z,48.40
2018-02-19T14:37:04.508Z,48.40
2018-02-19T14:39:32.121Z,48.50
2018-02-19T14:41:59.796Z,48.30
2018-02-19T14:44:27.377Z,48.50
2018-02-19T14:46:54.941Z,48.60
2018-02-19T14:49:22.608Z,48.60
2018-02-19T14:51:50.197Z,48.40
2018-02-19T14:54:18.037Z,48.50
2018-02-19T14:56:45.668Z,48.10
2018-02-19T14:59:14.109Z,48.00
2018-02-19T15:01:41.716Z,48.50
2018-02-19T15:04:09.295Z,48.40
2018-02-19T15:06:36.874Z,49.40
2018-02-19T15:09:04.596Z,48.40
2018-02-19T15:11:32.133Z,48.60
2018-02-19T15:13:59.705Z,48.50
2018-02-19T15:16:27.408Z,48.90
2018-02-19T15:18:54.980Z,48.80
2018-02-19T15:21:22.548Z,48.90
2018-02-19T15:23:50.174Z,49.00
2018-02-19T15:26:18.526Z,49.00
2018-02-19T15:28:46.092Z,49.00
2018-02-19T15:31:13.693Z,49.20
2018-02-19T15:33:42.214Z,49.30
2018-02-19T15:36:09.834Z,49.30
2018-02-19T15:38:37.540Z,49.60
2018-02-19T15:41:05.166Z,49.90
2018-02-19T15:43:32.789Z,49.70
2018-02-19T15:46:00.378Z,50.10
2018-02-19T15:48:28.007Z,50.40
2018-02-19T15:50:55.552Z,50.00
2018-02-19T15:53:23.139Z,50.00
2018-02-19T15:55:50.672Z,50.40
2018-02-19T15:58:19.007Z,50.40
2018-02-19T16:00:46.588Z,50.40
2018-02-19T16:03:14.147Z,50.40
2018-02-19T16:05:41.699Z,50.30
2018-02-19T16:08:09.240Z,50.00
2018-02-19T16:10:36.805Z,50.50
2018-02-19T16:13:05.100Z,50.10
2018-02-19T16:15:32.684Z,50.10
2018-02-19T16:18:00.993Z,50.70
2018-02-19T16:20:28.548Z,50.70
2018-02-19T16:22:56.161Z,50.80
2018-02-19T16:25:23.711Z,50.70
2018-02-19T16:27:52.180Z,50.60
2018-02-19T16:30:19.785Z,50.40
2018-02-19T16:32:47.370Z,50.50
2018-02-19T16:35:14.978Z,50.80
2018-02-19T16:37:42.528Z,50.70
2018-02-19T16:40:10.395Z,50.40
2018-02-19T16:42:37.921Z,50.60
2018-02-19T16:45:05.548Z,50.70
2018-02-19T16:47:33.860Z,51.00
2018-02-19T16:50:01.416Z,50.80
2018-02-19T16:52:28.980Z,51.10
2018-02-19T16:54:56.588Z,51.10
2018-02-19T16:57:24.138Z,51.00
2018-02-19T16:59:51.676Z,50.70
2018-02-19T17:02:19.261Z,50.60
2018-02-19T17:04:46.880Z,50.90
2018-02-19T17:07:14.464Z,51.10
2018-02-19T17:09:42.127Z,51.10
2018-02-19T17:12:09.677Z,51.30
2018-02-19T17:14:37.232Z,51.30
2018-02-19T17:17:04.811Z,51.10
2018-02-19T17:19:32.514Z,50.90
2018-02-19T17:22:00.667Z,50.90
2018-02-19T17:24:28.229Z,50.70
2018-02-19T17:26:55.789Z,50.70
2018-02-19T17:29:23.376Z,50.80
2018-02-19T17:31:50.953Z,50.70
2018-02-19T17:34:19.388Z,50.70
2018-02-19T17:36:46.922Z,50.70
2018-02-19T17:39:14.506Z,50.70
2018-02-19T17:41:42.074Z,50.70
2018-02-19T17:44:09.661Z,50.70
2018-02-19T17:46:37.289Z,50.80
2018-02-19T17:49:04.854Z,50.90
2018-02-19T17:51:32.428Z,50.50
2018-02-19T17:54:00.050Z,51.00
2018-02-19T17:56:27.599Z,51.20
2018-02-19T17:58:55.480Z,51.60
2018-02-19T18:01:23.026Z,51.90
2018-02-19T18:03:50.575Z,51.90
2018-02-19T18:06:18.123Z,51.60
2018-02-19T18:08:45.697Z,51.40
2018-02-19T18:11:13.256Z,50.90
2018-02-19T18:13:40.862Z,51.20
2018-02-19T18:16:08.394Z,51.50
2018-02-19T18:18:36.087Z,51.90
2018-02-19T18:21:03.607Z,52.00
2018-02-19T18:23:31.179Z,51.60
2018-02-19T18:25:58.796Z,50.80
2018-02-19T18:28:26.392Z,51.40
2018-02-19T18:30:53.946Z,51.40
2018-02-19T18:33:21.484Z,51.30
2018-02-19T18:35:49.142Z,51.60
2018-02-19T18:38:17.452Z,51.20
2018-02-19T18:40:45.025Z,51.20
2018-02-19T18:43:12.581Z,51.50
2018-02-19T18:45:40.192Z,51.30
2018-02-19T18:48:07.748Z,51.20
2018-02-19T18:50:35.339Z,51.60
2018-02-19T18:53:02.935Z,50.80
2018-02-19T18:55:30.533Z,51.20
2018-02-19T18:57:58.884Z,51.40
2018-02-19T19:00:26.458Z,51.40
2018-02-19T19:02:54.037Z,51.50
2018-02-19T19:05:21.606Z,52.10
2018-02-19T19:08:01.015Z,51.20
2018-02-19T19:10:40.298Z,51.20
2018-02-19T19:13:07.863Z,51.60
2018-02-19T19:15:35.395Z,51.80
2018-02-19T19:18:03.020Z,51.70
2018-02-19T19:20:30.569Z,51.70
2018-02-19T19:22:58.152Z,51.50
2018-02-19T19:25:25.734Z,51.60
2018-02-19T19:27:53.321Z,51.40
2018-02-19T19:30:20.913Z,51.40
2018-02-19T19:32:48.541Z,51.10
2018-02-19T19:35:16.127Z,51.30
2018-02-19T19:37:43.671Z,51.30
2018-02-19T19:40:11.246Z,51.50
2018-02-19T19:42:38.820Z,51.60
2018-02-19T19:45:06.389Z,51.50
2018-02-19T19:47:33.979Z,51.70
2018-02-19T19:50:01.560Z,51.60
2018-02-19T19:52:29.106Z,51.70
2018-02-19T19:54:56.693Z,51.30
2018-02-19T19:57:24.341Z,51.20
2018-02-19T19:59:51.900Z,51.40
2018-02-19T20:02:20.231Z,51.60
2018-02-19T20:04:47.852Z,51.60
2018-02-19T20:07:15.451Z,51.60
2018-02-19T20:09:42.986Z,52.10
2018-02-19T20:12:11.045Z,51.80
2018-02-19T20:14:38.634Z,51.80
2018-02-19T20:17:06.296Z,52.00
2018-02-19T20:19:33.860Z,51.70
2018-02-19T20:22:01.428Z,51.80
2018-02-19T20:24:28.988Z,51.90
2018-02-19T20:26:56.551Z,52.10
2018-02-19T20:29:24.107Z,52.10
2018-02-19T20:31:51.718Z,52.00
2018-02-19T20:34:19.223Z,52.00
2018-02-19T20:36:46.836Z,52.00
2018-02-19T20:39:15.146Z,51.80
2018-02-19T20:41:42.723Z,51.70
2018-02-19T20:44:10.271Z,51.80
2018-02-19T20:46:37.853Z,52.10
2018-02-19T20:49:05.408Z,52.10
2018-02-19T20:51:33.051Z,52.20
2018-02-19T20:54:00.628Z,51.90
2018-02-19T20:56:28.231Z,52.10
2018-02-19T20:58:55.851Z,52.20
2018-02-19T21:01:23.532Z,52.90
2018-02-19T21:03:51.080Z,52.20
2018-02-19T21:06:18.679Z,52.30
2018-02-19T21:08:46.199Z,52.60
2018-02-19T21:11:13.742Z,52.60
2018-02-19T21:13:42.076Z,52.00
2018-02-19T21:16:10.419Z,52.20
2018-02-19T21:18:37.981Z,52.20
2018-02-19T21:21:05.561Z,52.50
2018-02-19T21:23:33.089Z,52.40
2018-02-19T21:26:00.642Z,52.20
2018-02-19T21:28:29.064Z,51.80
2018-02-19T21:30:57.394Z,52.20
2018-02-19T21:33:24.924Z,52.20
2018-02-19T21:35:52.477Z,52.30
2018-02-19T21:38:20.036Z,52.30
2018-02-19T21:40:48.438Z,52.50
2018-02-19T21:43:16.015Z,52.50
2018-02-19T21:45:43.549Z,52.40
2018-02-19T21:48:11.071Z,52.50
2018-02-19T21:50:38.620Z,52.30
2018-02-19T21:53:06.133Z,52.50
2018-02-19T21:55:33.699Z,52.00
2018-02-19T21:58:01.262Z,52.30
2018-02-19T22:00:28.783Z,52.30
2018-02-19T22:02:56.341Z,52.30
2018-02-19T22:05:23.877Z,52.50
2018-02-19T22:07:51.432Z,52.40
2018-02-19T22:10:19.030Z,52.40
2018-02-19T22:12:46.583Z,52.30
2018-02-19T22:15:14.939Z,52.60
2018-02-19T22:17:42.474Z,52.60
2018-02-19T22:20:10.066Z,52.70
2018-02-19T22:22:37.643Z,52.50
2018-02-19T22:25:05.203Z,52.50
2018-02-19T22:27:32.741Z,53.10
2018-02-19T22:30:00.292Z,52.40
2018-02-19T22:32:27.806Z,52.20
2018-02-19T22:34:55.311Z,52.20
2018-02-19T22:37:23.012Z,52.30
2018-02-19T22:39:51.305Z,52.50
2018-02-19T22:42:18.868Z,52.50
2018-02-19T22:44:46.405Z,52.70
2018-02-19T22:47:13.943Z,52.50
2018-02-19T22:49:41.484Z,52.50
2018-02-19T22:52:09.016Z,52.50
2018-02-19T22:54:36.561Z,52.60
2018-02-19T22:57:04.088Z,52.60
2018-02-19T22:59:31.644Z,52.40
2018-02-19T23:01:59.193Z,52.40
2018-02-19T23:04:26.745Z,52.30
2018-02-19T23:06:54.256Z,52.30
2018-02-19T23:09:21.819Z,52.20
2018-02-19T23:11:50.119Z,52.40
2018-02-19T23:14:17.703Z,52.40
2018-02-19T23:16:45.212Z,52.30
2018-02-19T23:19:13.579Z,52.30
2018-02-19T23:21:41.151Z,52.40
2018-02-19T23:24:08.725Z,52.40
2018-02-19T23:26:36.278Z,52.60
2018-02-19T23:29:03.827Z,52.60
2018-02-19T23:31:31.388Z,52.60
2018-02-19T23:33:59.668Z,52.50
2018-02-19T23:36:27.228Z,52.50
2018-02-19T23:38:55.516Z,52.70
2018-02-19T23:41:23.069Z,52.70
2018-02-19T23:43:51.389Z,52.70
2018-02-19T23:46:18.947Z,52.70
2018-02-19T23:48:46.472Z,53.00
2018-02-19T23:51:14.032Z,53.10
2018-02-19T23:53:41.560Z,53.10
2018-02-19T23:56:09.083Z,53.20
2018-02-19T23:58:36.643Z,53.40
